createdAt,value
2018-04-08T00:00:55.365Z,85.70
2018-04-08T00:03:22.082Z,85.70
2018-04-08T00:05:49.360Z,86.00
2018-04-08T00:08:15.948Z,85.90
2018-04-08T00:10:42.565Z,85.90
2018-04-08T00:13:09.115Z,85.80
2018-04-08T00:15:35.730Z,85.80
2018-04-08T00:18:02.883Z,86.10
2018-04-08T00:20:29.412Z,85.90
2018-04-08T00:22:56.031Z,85.70
2018-04-08T00:25:22.593Z,86.00
2018-04-08T00:27:49.148Z,85.70
2018-04-08T00:30:15.797Z,85.60
2018-04-08T00:32:42.423Z,85.70
2018-04-08T00:35:09.757Z,85.80
2018-04-08T00:37:36.344Z,85.70
2018-04-08T00:40:03.650Z,86.00
2018-04-08T00:42:30.234Z,85.80
2018-04-08T00:44:57.534Z,85.90
2018-04-08T00:47:24.108Z,85.80
2018-04-08T00:49:50.709Z,86.60
2018-04-08T00:52:17.313Z,85.90
2018-04-08T00:54:43.916Z,85.80
2018-04-08T00:57:10.468Z,85.70
2018-04-08T00:59:37.003Z,85.70
2018-04-08T01:02:04.299Z,85.70
2018-04-08T01:04:30.867Z,85.60
2018-04-08T01:06:57.431Z,85.90
2018-04-08T01:09:24.753Z,85.90
2018-04-08T01:11:51.287Z,86.00
2018-04-08T01:14:17.829Z,86.10
2018-04-08T01:16:44.446Z,86.10
2018-04-08T01:19:11.750Z,86.10
2018-04-08T01:21:38.327Z,86.10
2018-04-08T01:24:04.946Z,86.40
2018-04-08T01:26:31.480Z,86.30
2018-04-08T01:28:58.065Z,86.50
2018-04-08T01:31:24.696Z,86.60
2018-04-08T01:33:51.248Z,86.60
2018-04-08T01:36:17.808Z,86.60
2018-04-08T01:38:44.347Z,86.60
2018-04-08T01:41:10.862Z,86.50
2018-04-08T01:43:37.367Z,86.60
2018-04-08T01:46:03.885Z,86.70
2018-04-08T01:48:30.377Z,86.50
2018-04-08T01:50:58.404Z,87.00
2018-04-08T01:53:24.946Z,87.10
2018-04-08T01:55:52.031Z,86.80
2018-04-08T01:58:18.584Z,86.90
2018-04-08T02:00:45.123Z,87.10
2018-04-08T02:03:12.371Z,87.10
2018-04-08T02:05:39.615Z,86.80
2018-04-08T02:08:06.896Z,86.60
2018-04-08T02:10:33.416Z,86.70
2018-04-08T02:12:59.959Z,86.80
2018-04-08T02:15:26.524Z,87.10
2018-04-08T02:17:53.019Z,87.50
2018-04-08T02:20:20.303Z,88.30
2018-04-08T02:22:46.818Z,87.60
2018-04-08T02:25:13.353Z,87.50
2018-04-08T02:27:39.976Z,87.30
2018-04-08T02:30:06.503Z,87.60
2018-04-08T02:32:32.991Z,87.90
2018-04-08T02:34:59.531Z,87.70
2018-04-08T02:37:26.030Z,87.50
2018-04-08T02:39:53.319Z,87.40
2018-04-08T02:42:19.814Z,87.40
2018-04-08T02:44:47.052Z,87.70
2018-04-08T02:47:14.302Z,87.70
2018-04-08T02:49:40.799Z,87.70
2018-04-08T02:52:07.363Z,87.50
2018-04-08T02:54:34.650Z,87.70
2018-04-08T02:57:01.972Z,87.80
2018-04-08T02:59:28.524Z,87.80
2018-04-08T03:01:55.791Z,88.20
2018-04-08T03:04:23.071Z,87.70
2018-04-08T03:06:49.620Z,87.70
2018-04-08T03:09:16.152Z,87.40
2018-04-08T03:11:42.644Z,87.60
2018-04-08T03:14:09.879Z,88.50
2018-04-08T03:16:36.398Z,88.60
2018-04-08T03:19:02.897Z,88.50
2018-04-08T03:21:29.400Z,88.70
2018-04-08T03:23:56.691Z,88.70
2018-04-08T03:26:23.212Z,88.80
2018-04-08T03:28:50.475Z,88.70
2018-04-08T03:31:17.022Z,88.70
2018-04-08T03:33:43.561Z,88.80
2018-04-08T03:36:10.105Z,88.70
2018-04-08T03:38:36.688Z,89.00
2018-04-08T03:41:03.167Z,89.00
2018-04-08T03:43:29.678Z,89.00
2018-04-08T03:45:56.309Z,88.70
2018-04-08T03:48:22.816Z,88.80
2018-04-08T03:50:49.329Z,89.40
2018-04-08T03:53:15.830Z,89.10
2018-04-08T03:55:42.353Z,89.30
2018-04-08T03:58:08.867Z,89.50
2018-04-08T04:00:36.184Z,89.50
2018-04-08T04:03:02.715Z,89.40
2018-04-08T04:05:29.280Z,89.40
2018-04-08T04:07:55.902Z,89.50
2018-04-08T04:10:23.065Z,89.40
2018-04-08T04:12:49.607Z,89.20
2018-04-08T04:15:16.186Z,89.00
2018-04-08T04:17:42.726Z,89.20
2018-04-08T04:20:21.362Z,89.20
2018-04-08T04:23:00.060Z,89.30
2018-04-08T04:25:32.593Z,89.50
2018-04-08T04:27:59.140Z,89.20
2018-04-08T04:30:26.396Z,89.20
2018-04-08T04:32:53.682Z,89.10
2018-04-08T04:35:20.258Z,89.10
2018-04-08T04:37:46.832Z,89.00
2018-04-08T04:40:14.062Z,89.20
2018-04-08T04:42:40.543Z,89.20
2018-04-08T04:45:07.043Z,89.20
2018-04-08T04:47:33.535Z,89.30
2018-04-08T04:50:00.050Z,89.50
2018-04-08T04:52:26.531Z,89.90
2018-04-08T04:54:53.762Z,89.60
2018-04-08T04:57:20.263Z,89.60
2018-04-08T04:59:46.754Z,89.60
2018-04-08T05:02:13.308Z,89.80
2018-04-08T05:04:40.565Z,90.00
2018-04-08T05:07:07.827Z,89.70
2018-04-08T05:09:34.393Z,89.70
2018-04-08T05:12:00.887Z,89.60
2018-04-08T05:14:27.435Z,89.50
2018-04-08T05:16:54.729Z,89.40
2018-04-08T05:19:21.231Z,89.50
2018-04-08T05:21:47.864Z,89.40
2018-04-08T05:24:14.413Z,89.30
2018-04-08T05:26:40.904Z,89.00
2018-04-08T05:29:07.382Z,89.20
2018-04-08T05:31:33.864Z,89.10
2018-04-08T05:34:00.356Z,89.40
2018-04-08T05:36:26.855Z,89.20
2018-04-08T05:38:54.220Z,88.30
2018-04-08T05:41:21.510Z,88.50
2018-04-08T05:43:48.077Z,88.50
2018-04-08T05:46:14.603Z,88.50
2018-04-08T05:48:41.128Z,88.80
2018-04-08T05:51:07.645Z,88.70
2018-04-08T05:53:34.230Z,88.60
2018-04-08T05:56:00.779Z,88.80
2018-04-08T05:58:27.399Z,88.30
2018-04-08T06:00:53.883Z,88.40
2018-04-08T06:03:20.384Z,88.40
2018-04-08T06:05:46.876Z,88.20
2018-04-08T06:08:13.393Z,88.20
2018-04-08T06:10:39.919Z,88.30
2018-04-08T06:13:06.535Z,88.60
2018-04-08T06:15:33.770Z,88.50
2018-04-08T06:18:00.250Z,88.60
2018-04-08T06:20:26.866Z,88.70
2018-04-08T06:22:54.214Z,88.50
2018-04-08T06:25:21.563Z,88.20
2018-04-08T06:27:48.886Z,88.10
2018-04-08T06:30:15.419Z,88.00
2018-04-08T06:32:41.892Z,88.70
2018-04-08T06:35:08.549Z,88.80
2018-04-08T06:37:35.098Z,88.30
2018-04-08T06:40:01.729Z,88.20
2018-04-08T06:42:29.032Z,87.80
2018-04-08T06:44:55.581Z,87.90
2018-04-08T06:47:22.168Z,87.30
2018-04-08T06:49:48.715Z,87.00
2018-04-08T06:52:15.243Z,86.80
2018-04-08T06:54:41.750Z,86.60
2018-04-08T06:57:09.005Z,86.50
2018-04-08T06:59:35.557Z,86.60
2018-04-08T07:02:02.105Z,86.60
2018-04-08T07:04:28.655Z,87.00
2018-04-08T07:06:55.132Z,86.80
2018-04-08T07:09:21.651Z,86.60
2018-04-08T07:11:48.221Z,86.40
2018-04-08T07:14:14.816Z,86.40
2018-04-08T07:16:41.296Z,86.30
2018-04-08T07:19:08.537Z,85.90
2018-04-08T07:21:35.844Z,86.00
2018-04-08T07:24:02.354Z,85.80
2018-04-08T07:26:28.883Z,85.90
2018-04-08T07:28:55.375Z,85.90
2018-04-08T07:31:21.910Z,85.90
2018-04-08T07:33:48.411Z,85.70
2018-04-08T07:36:14.902Z,85.80
2018-04-08T07:38:42.177Z,85.60
2018-04-08T07:41:08.707Z,85.50
2018-04-08T07:43:35.209Z,85.10
2018-04-08T07:46:01.774Z,84.10
2018-04-08T07:48:28.369Z,84.00
2018-04-08T07:50:54.897Z,84.00
2018-04-08T07:53:21.465Z,83.30
2018-04-08T07:55:48.715Z,83.50
2018-04-08T07:58:15.214Z,83.50
2018-04-08T08:00:41.743Z,82.20
2018-04-08T08:03:08.303Z,82.00
2018-04-08T08:05:34.886Z,81.00
2018-04-08T08:08:01.440Z,79.20
2018-04-08T08:10:28.003Z,78.10
2018-04-08T08:12:54.559Z,77.40
2018-04-08T08:15:21.889Z,75.20
2018-04-08T08:17:48.412Z,75.20
2018-04-08T08:20:14.955Z,74.30
2018-04-08T08:22:41.571Z,75.70
2018-04-08T08:25:08.068Z,75.40
2018-04-08T08:27:34.671Z,76.30
2018-04-08T08:30:01.219Z,76.10
2018-04-08T08:32:27.757Z,75.90
2018-04-08T08:34:54.301Z,76.90
2018-04-08T08:37:20.822Z,77.20
2018-04-08T08:39:47.385Z,76.00
2018-04-08T08:42:14.738Z,72.00
2018-04-08T08:44:41.997Z,71.10
2018-04-08T08:47:09.227Z,69.70
2018-04-08T08:49:35.729Z,69.60
2018-04-08T08:52:03.030Z,69.20
2018-04-08T08:54:29.584Z,69.20
2018-04-08T08:56:56.833Z,69.80
2018-04-08T08:59:24.095Z,70.60
2018-04-08T09:01:51.385Z,71.70
2018-04-08T09:04:17.943Z,71.80
2018-04-08T09:06:44.545Z,70.60
2018-04-08T09:09:11.698Z,71.50
2018-04-08T09:11:38.354Z,71.50
2018-04-08T09:14:04.946Z,71.90
2018-04-08T09:16:32.774Z,71.70
2018-04-08T09:19:01.241Z,71.60
2018-04-08T09:21:34.230Z,71.70
2018-04-08T09:24:03.786Z,65.70
2018-04-08T09:26:31.166Z,57.20
2018-04-08T09:28:57.766Z,57.10
2018-04-08T09:31:24.319Z,57.50
2018-04-08T09:33:50.902Z,54.10
2018-04-08T09:36:17.521Z,52.40
2018-04-08T09:38:44.073Z,52.50
2018-04-08T09:41:10.562Z,53.40
2018-04-08T09:43:37.112Z,55.90
2018-04-08T09:46:03.641Z,58.40
2018-04-08T09:48:30.231Z,53.60
2018-04-08T09:50:56.844Z,52.60
2018-04-08T09:53:23.414Z,49.50
2018-04-08T09:55:50.002Z,47.80
2018-04-08T09:58:17.554Z,49.70
2018-04-08T10:03:51.200Z,51.60
2018-04-08T10:06:18.575Z,50.00
2018-04-08T10:08:45.628Z,48.40
2018-04-08T10:11:12.194Z,49.30
2018-04-08T10:13:38.732Z,51.40
2018-04-08T10:16:06.418Z,51.30
2018-04-08T10:18:33.057Z,51.40
2018-04-08T10:20:59.659Z,50.90
2018-04-08T10:23:26.274Z,50.50
2018-04-08T10:25:52.828Z,51.40
2018-04-08T10:28:19.352Z,50.60
2018-04-08T10:30:45.954Z,52.00
2018-04-08T10:33:12.488Z,50.90
2018-04-08T10:35:39.083Z,51.60
2018-04-08T10:38:05.602Z,51.60
2018-04-08T10:40:32.228Z,51.50
2018-04-08T10:42:58.806Z,51.50
2018-04-08T10:45:25.363Z,47.90
2018-04-08T10:47:51.942Z,49.40
2018-04-08T10:50:18.511Z,48.90
2018-04-08T10:52:45.054Z,49.50
2018-04-08T10:55:12.308Z,49.00
2018-04-08T10:57:38.823Z,49.10
2018-04-08T11:00:05.366Z,48.70
2018-04-08T11:02:31.967Z,50.10
2018-04-08T11:04:59.509Z,49.70
2018-04-08T11:07:26.048Z,50.70
2018-04-08T11:09:52.553Z,47.50
2018-04-08T11:12:19.115Z,46.00
2018-04-08T11:14:45.653Z,46.80
2018-04-08T11:17:12.254Z,46.90
2018-04-08T11:19:39.567Z,43.80
2018-04-08T11:22:06.127Z,43.90
2018-04-08T11:24:32.685Z,44.80
2018-04-08T11:27:03.527Z,43.00
2018-04-08T11:29:30.070Z,42.90
2018-04-08T11:31:56.599Z,43.30
2018-04-08T11:34:23.110Z,42.90
2018-04-08T11:36:49.633Z,42.40
2018-04-08T11:39:16.210Z,43.60
2018-04-08T11:41:42.783Z,43.10
2018-04-08T11:44:09.334Z,43.00
2018-04-08T11:46:35.947Z,42.60
2018-04-08T11:49:02.480Z,42.50
2018-04-08T11:51:33.037Z,42.20
2018-04-08T11:54:00.307Z,45.40
2018-04-08T11:56:26.827Z,45.40
2018-04-08T11:58:53.445Z,46.10
2018-04-08T12:01:25.951Z,43.30
2018-04-08T12:03:52.511Z,42.50
2018-04-08T12:06:19.086Z,42.70
2018-04-08T12:08:45.678Z,42.80
2018-04-08T12:11:12.931Z,42.20
2018-04-08T12:13:40.758Z,42.70
2018-04-08T12:16:07.343Z,42.70
2018-04-08T12:18:33.863Z,42.70
2018-04-08T12:21:00.522Z,39.60
2018-04-08T12:23:27.097Z,42.00
2018-04-08T12:25:54.352Z,41.10
2018-04-08T12:28:20.883Z,39.50
2018-04-08T12:30:49.622Z,40.50
2018-04-08T12:33:16.926Z,42.90
2018-04-08T12:35:43.433Z,42.80
2018-04-08T12:38:10.011Z,42.50
2018-04-08T12:40:37.385Z,39.20
2018-04-08T12:43:04.007Z,39.40
2018-04-08T12:45:30.546Z,38.10
2018-04-08T12:47:57.190Z,37.30
2018-04-08T12:50:23.758Z,36.00
2018-04-08T12:52:50.998Z,35.60
2018-04-08T12:55:17.635Z,35.20
2018-04-08T12:57:44.962Z,37.30
2018-04-08T13:00:12.628Z,36.20
2018-04-08T13:02:39.209Z,35.00
2018-04-08T13:05:05.728Z,35.00
2018-04-08T13:07:33.029Z,36.70
2018-04-08T13:09:59.616Z,36.20
2018-04-08T13:12:26.938Z,37.50
2018-04-08T13:14:53.477Z,37.10
2018-04-08T13:17:20.034Z,37.00
2018-04-08T13:19:46.608Z,36.20
2018-04-08T13:22:13.131Z,35.10
2018-04-08T13:24:39.803Z,33.90
2018-04-08T13:27:06.398Z,32.40
2018-04-08T13:29:32.970Z,33.20
2018-04-08T13:31:59.551Z,33.70
2018-04-08T13:34:26.091Z,33.40
2018-04-08T13:36:52.699Z,30.00
2018-04-08T13:39:19.487Z,30.00
2018-04-08T13:41:46.786Z,29.90
2018-04-08T13:44:13.346Z,29.90
2018-04-08T13:46:39.996Z,29.30
2018-04-08T13:49:06.563Z,31.40
2018-04-08T13:51:33.873Z,28.90
2018-04-08T13:54:00.512Z,28.80
2018-04-08T13:56:27.149Z,29.50
2018-04-08T13:58:53.760Z,31.00
2018-04-08T14:01:20.324Z,31.30
2018-04-08T14:03:46.916Z,30.30
2018-04-08T14:06:13.496Z,29.60
2018-04-08T14:08:40.141Z,28.20
2018-04-08T14:11:06.734Z,28.40
2018-04-08T14:13:34.037Z,31.40
2018-04-08T14:16:00.942Z,31.40
2018-04-08T14:18:27.645Z,29.70
2018-04-08T14:20:54.514Z,30.00
2018-04-08T14:23:21.034Z,33.60
2018-04-08T14:25:47.556Z,33.10
2018-04-08T14:28:14.858Z,34.00
2018-04-08T14:30:42.214Z,37.50
2018-04-08T14:33:08.814Z,37.60
2018-04-08T14:35:35.402Z,35.90
2018-04-08T14:38:01.952Z,32.10
2018-04-08T14:40:28.498Z,32.00
2018-04-08T14:42:55.067Z,32.60
2018-04-08T14:45:21.656Z,32.70
2018-04-08T14:47:48.279Z,33.80
2018-04-08T14:50:14.807Z,34.30
2018-04-08T14:52:41.378Z,33.60
2018-04-08T14:55:08.003Z,32.40
2018-04-08T14:57:34.570Z,33.50
2018-04-08T15:00:01.131Z,33.20
2018-04-08T15:02:27.644Z,32.50
2018-04-08T15:04:54.219Z,33.30
2018-04-08T15:07:20.796Z,34.50
2018-04-08T15:09:47.323Z,32.40
2018-04-08T15:12:13.935Z,33.80
2018-04-08T15:14:40.531Z,35.20
2018-04-08T15:17:07.865Z,33.40
2018-04-08T15:19:34.370Z,33.00
2018-04-08T15:22:00.946Z,32.70
2018-04-08T15:24:27.561Z,32.50
2018-04-08T15:26:54.058Z,33.10
2018-04-08T15:29:20.552Z,32.80
2018-04-08T15:31:47.066Z,33.60
2018-04-08T15:34:13.593Z,33.70
2018-04-08T15:36:40.203Z,33.10
2018-04-08T15:39:06.784Z,33.70
2018-04-08T15:41:33.337Z,32.80
2018-04-08T15:43:59.910Z,33.00
2018-04-08T15:46:26.479Z,32.90
2018-04-08T15:48:52.997Z,33.80
2018-04-08T15:51:19.564Z,34.40
2018-04-08T15:53:46.058Z,34.30
2018-04-08T15:56:12.590Z,33.80
2018-04-08T15:58:39.082Z,34.30
2018-04-08T16:01:05.623Z,34.90
2018-04-08T16:03:32.167Z,35.30
2018-04-08T16:06:00.535Z,33.10
2018-04-08T16:08:27.860Z,33.90
2018-04-08T16:10:54.427Z,33.80
2018-04-08T16:13:21.020Z,33.70
2018-04-08T16:15:47.523Z,33.10
2018-04-08T16:18:14.857Z,33.60
2018-04-08T16:20:41.389Z,33.90
2018-04-08T16:23:07.950Z,33.70
2018-04-08T16:25:34.607Z,33.80
2018-04-08T16:28:01.130Z,33.60
2018-04-08T16:30:27.730Z,33.90
2018-04-08T16:32:54.263Z,33.60
2018-04-08T16:35:20.829Z,34.10
2018-04-08T16:37:47.372Z,34.80
2018-04-08T16:40:13.924Z,35.20
2018-04-08T16:42:40.434Z,36.60
2018-04-08T16:45:07.711Z,38.90
2018-04-08T16:47:34.243Z,38.90
2018-04-08T16:50:00.776Z,39.10
2018-04-08T16:52:27.305Z,39.30
2018-04-08T16:54:53.815Z,39.60
2018-04-08T16:57:20.319Z,39.10
2018-04-08T16:59:46.895Z,38.30
2018-04-08T17:02:13.467Z,38.70
2018-04-08T17:04:40.001Z,37.90
2018-04-08T17:07:06.570Z,37.30
2018-04-08T17:09:33.094Z,37.30
2018-04-08T17:11:59.685Z,37.10
2018-04-08T17:14:26.999Z,35.60
2018-04-08T17:16:53.519Z,35.80
2018-04-08T17:19:20.872Z,35.30
2018-04-08T17:21:47.443Z,35.10
2018-04-08T17:24:13.992Z,35.10
2018-04-08T17:26:41.317Z,33.70
2018-04-08T17:29:07.896Z,33.80
2018-04-08T17:31:35.137Z,34.10
2018-04-08T17:34:01.785Z,34.20
2018-04-08T17:36:28.303Z,38.50
2018-04-08T17:38:54.835Z,40.70
2018-04-08T17:41:21.424Z,41.60
2018-04-08T17:43:48.013Z,43.20
2018-04-08T17:46:14.563Z,43.00
2018-04-08T17:48:41.828Z,45.90
2018-04-08T17:51:09.081Z,45.40
2018-04-08T17:53:35.594Z,45.30
2018-04-08T17:56:02.405Z,44.30
2018-04-08T17:58:28.935Z,44.00
2018-04-08T18:00:55.557Z,44.90
2018-04-08T18:03:22.158Z,44.70
2018-04-08T18:05:48.689Z,44.20
2018-04-08T18:08:15.947Z,45.40
2018-04-08T18:10:43.227Z,42.30
2018-04-08T18:13:09.750Z,42.30
2018-04-08T18:15:36.363Z,46.90
2018-04-08T18:18:02.891Z,45.70
2018-04-08T18:20:29.468Z,46.60
2018-04-08T18:22:55.985Z,46.00
2018-04-08T18:25:23.279Z,41.40
2018-04-08T18:27:49.840Z,41.30
2018-04-08T18:30:16.376Z,38.30
2018-04-08T18:32:42.902Z,36.50
2018-04-08T18:35:09.596Z,36.00
2018-04-08T18:37:36.863Z,36.20
2018-04-08T18:40:03.489Z,36.50
2018-04-08T18:42:31.086Z,34.10
2018-04-08T18:44:57.883Z,33.60
2018-04-08T18:47:24.544Z,33.90
2018-04-08T18:49:51.067Z,35.50
2018-04-08T18:52:17.686Z,35.70
2018-04-08T18:54:45.098Z,37.10
2018-04-08T18:57:11.631Z,37.50
2018-04-08T18:59:38.151Z,38.20
2018-04-08T19:02:04.747Z,39.20
2018-04-08T19:04:32.201Z,40.40
2018-04-08T19:06:58.867Z,40.40
2018-04-08T19:09:25.451Z,40.40
2018-04-08T19:11:52.090Z,40.00
2018-04-08T19:14:19.346Z,39.70
2018-04-08T19:16:46.011Z,37.90
2018-04-08T19:19:12.547Z,39.50
2018-04-08T19:21:39.315Z,40.10
2018-04-08T19:24:05.926Z,41.50
2018-04-08T19:26:33.272Z,42.70
2018-04-08T19:28:59.852Z,42.70
2018-04-08T19:31:26.528Z,44.30
2018-04-08T19:33:53.346Z,43.70
2018-04-08T19:36:20.023Z,45.30
2018-04-08T19:38:46.607Z,45.30
2018-04-08T19:41:13.185Z,46.50
2018-04-08T19:43:39.761Z,46.60
2018-04-08T19:46:07.146Z,48.40
2018-04-08T19:48:33.724Z,48.40
2018-04-08T19:51:00.290Z,49.30
2018-04-08T19:53:27.601Z,49.20
2018-04-08T19:55:54.197Z,49.10
2018-04-08T19:58:20.877Z,50.50
2018-04-08T20:00:47.408Z,50.30
2018-04-08T20:03:14.142Z,51.10
2018-04-08T20:05:40.673Z,52.10
2018-04-08T20:08:07.273Z,53.60
2018-04-08T20:10:33.954Z,55.00
2018-04-08T20:13:00.558Z,56.90
2018-04-08T20:15:27.075Z,56.40
2018-04-08T20:17:54.599Z,56.20
2018-04-08T20:20:21.150Z,56.10
2018-04-08T20:22:47.720Z,56.80
2018-04-08T20:25:14.217Z,57.20
2018-04-08T20:27:40.813Z,57.20
2018-04-08T20:30:07.443Z,56.50
2018-04-08T20:32:33.976Z,55.10
2018-04-08T20:35:01.309Z,57.90
2018-04-08T20:37:27.861Z,58.30
2018-04-08T20:39:55.174Z,60.00
2018-04-08T20:42:21.708Z,60.00
2018-04-08T20:44:48.307Z,61.00
2018-04-08T20:47:15.042Z,62.00
2018-04-08T20:49:41.554Z,62.20
2018-04-08T20:52:08.856Z,62.00
2018-04-08T20:54:35.506Z,61.80
2018-04-08T20:57:02.069Z,61.80
2018-04-08T20:59:28.608Z,62.60
2018-04-08T21:01:55.164Z,62.70
2018-04-08T21:04:22.442Z,63.60
2018-04-08T21:06:48.995Z,63.70
2018-04-08T21:09:15.746Z,63.20
2018-04-08T21:11:42.279Z,63.00
2018-04-08T21:14:09.990Z,63.60
2018-04-08T21:16:37.290Z,63.00
2018-04-08T21:19:03.920Z,63.00
2018-04-08T21:21:30.519Z,63.50
2018-04-08T21:23:57.042Z,64.30
2018-04-08T21:26:23.649Z,65.20
2018-04-08T21:28:50.191Z,65.70
2018-04-08T21:31:16.760Z,65.80
2018-04-08T21:33:44.083Z,66.90
2018-04-08T21:36:10.648Z,66.00
2018-04-08T21:38:37.929Z,66.60
2018-04-08T21:41:04.508Z,66.70
2018-04-08T21:43:31.098Z,67.90
2018-04-08T21:45:57.683Z,68.50
2018-04-08T21:48:24.236Z,68.60
2018-04-08T21:50:51.373Z,68.70
2018-04-08T21:53:17.933Z,66.80
2018-04-08T21:55:44.552Z,67.70
2018-04-08T21:58:11.140Z,68.30
2018-04-08T22:00:41.877Z,68.90
2018-04-08T22:03:08.460Z,70.40
2018-04-08T22:05:34.992Z,71.40
2018-04-08T22:08:01.554Z,70.60
2018-04-08T22:10:28.839Z,70.90
2018-04-08T22:12:55.346Z,70.80
2018-04-08T22:15:21.919Z,70.50
2018-04-08T22:17:48.472Z,70.50
2018-04-08T22:20:15.039Z,70.50
2018-04-08T22:22:45.860Z,69.90
2018-04-08T22:25:12.428Z,70.40
2018-04-08T22:27:41.333Z,71.30
2018-04-08T22:30:08.658Z,72.00
2018-04-08T22:32:35.158Z,71.90
2018-04-08T22:35:01.682Z,71.90
2018-04-08T22:37:28.720Z,72.20
2018-04-08T22:39:55.224Z,72.70
2018-04-08T22:42:22.623Z,73.20
2018-04-08T22:44:49.252Z,74.00
2018-04-08T22:47:16.316Z,73.50
2018-04-08T22:49:42.857Z,73.30
2018-04-08T22:52:09.388Z,74.10
2018-04-08T22:54:35.899Z,74.00
2018-04-08T22:57:03.406Z,74.40
2018-04-08T22:59:30.704Z,74.40
2018-04-08T23:01:57.252Z,74.40
2018-04-08T23:04:23.799Z,75.10
2018-04-08T23:06:50.374Z,75.10
2018-04-08T23:09:16.932Z,74.60
2018-04-08T23:11:44.298Z,74.50
2018-04-08T23:14:10.828Z,74.50
2018-04-08T23:16:37.378Z,75.40
2018-04-08T23:19:03.969Z,75.50
2018-04-08T23:21:30.620Z,76.20
2018-04-08T23:23:57.160Z,76.40
2018-04-08T23:26:23.688Z,76.50
2018-04-08T23:28:50.228Z,77.60
2018-04-08T23:31:16.791Z,77.30
2018-04-08T23:33:47.687Z,77.30
2018-04-08T23:36:14.298Z,77.00
2018-04-08T23:38:41.427Z,77.00
2018-04-08T23:41:08.010Z,77.60
2018-04-08T23:43:34.524Z,77.90
2018-04-08T23:46:01.041Z,77.60
2018-04-08T23:48:27.620Z,77.50
2018-04-08T23:50:54.125Z,77.60
2018-04-08T23:53:20.625Z,77.90
2018-04-08T23:55:48.886Z,78.60
2018-04-08T23:58:16.374Z,78.60
